sensor_id;sensor_type;location;lat;lon;timestamp;temperature;humidity
28532;DHT22;15738;44.860;10.066;2023-03-23T00:01:07;12.90;99.90
28532;DHT22;15738;44.860;10.066;2023-03-23T00:03:54;12.90;99.90
28532;DHT22;15738;44.860;10.066;2023-03-23T00:06:42;13.00;99.90
28532;DHT22;15738;44.860;10.066;2023-03-23T00:09:29;13.00;99.90
28532;DHT22;15738;44.860;10.066;2023-03-23T00:12:19;12.90;99.90
28532;DHT22;15738;44.860;10.066;2023-03-23T00:15:04;12.90;99.90
28532;DHT22;15738;44.860;10.066;2023-03-23T00:17:50;12.90;99.90
28532;DHT22;15738;44.860;10.066;2023-03-23T00:20:35;12.90;99.90
28532;DHT22;15738;44.860;10.066;2023-03-23T00:23:25;12.90;99.90
28532;DHT22;15738;44.860;10.066;2023-03-23T00:26:10;12.90;99.90
28532;DHT22;15738;44.860;10.066;2023-03-23T00:28:55;13.10;99.90
28532;DHT22;15738;44.860;10.066;2023-03-23T00:31:39;13.10;99.90
28532;DHT22;15738;44.860;10.066;2023-03-23T00:34:24;13.10;99.90
28532;DHT22;15738;44.860;10.066;2023-03-23T00:37:10;13.10;99.90
28532;DHT22;15738;44.860;10.066;2023-03-23T00:39:55;13.20;99.90
28532;DHT22;15738;44.860;10.066;2023-03-23T00:42:41;13.20;99.90
28532;DHT22;15738;44.860;10.066;2023-03-23T00:45:25;13.20;99.90
28532;DHT22;15738;44.860;10.066;2023-03-23T00:48:12;13.10;99.90
28532;DHT22;15738;44.860;10.066;2023-03-23T00:50:57;13.10;99.90
28532;DHT22;15738;44.860;10.066;2023-03-23T00:53:41;13.10;99.90
28532;DHT22;15738;44.860;10.066;2023-03-23T00:56:25;13.10;99.90
28532;DHT22;15738;44.860;10.066;2023-03-23T00:59:10;13.10;99.90
28532;DHT22;15738;44.860;10.066;2023-03-23T01:01:55;13.00;99.90
28532;DHT22;15738;44.860;10.066;2023-03-23T01:04:39;13.00;99.90
28532;DHT22;15738;44.860;10.066;2023-03-23T01:07:24;12.90;99.90
28532;DHT22;15738;44.860;10.066;2023-03-23T01:10:08;12.80;99.90
28532;DHT22;15738;44.860;10.066;2023-03-23T01:12:56;12.70;99.90
28532;DHT22;15738;44.860;10.066;2023-03-23T01:15:40;12.70;99.90
28532;DHT22;15738;44.860;10.066;2023-03-23T01:18:25;12.60;99.90
28532;DHT22;15738;44.860;10.066;2023-03-23T01:21:11;12.60;99.90
28532;DHT22;15738;44.860;10.066;2023-03-23T01:23:56;12.60;99.90
28532;DHT22;15738;44.860;10.066;2023-03-23T01:26:41;12.50;99.90
28532;DHT22;15738;44.860;10.066;2023-03-23T01:29:26;12.50;99.90
28532;DHT22;15738;44.860;10.066;2023-03-23T01:32:10;12.50;99.90
28532;DHT22;15738;44.860;10.066;2023-03-23T01:34:54;12.40;99.90
28532;DHT22;15738;44.860;10.066;2023-03-23T01:37:39;12.40;99.90
28532;DHT22;15738;44.860;10.066;2023-03-23T01:40:26;12.40;99.90
28532;DHT22;15738;44.860;10.066;2023-03-23T01:43:12;12.40;99.90
28532;DHT22;15738;44.860;10.066;2023-03-23T01:45:59;12.40;99.90
28532;DHT22;15738;44.860;10.066;2023-03-23T01:48:44;12.30;99.90
28532;DHT22;15738;44.860;10.066;2023-03-23T01:51:29;12.30;99.90
28532;DHT22;15738;44.860;10.066;2023-03-23T01:54:14;12.30;99.90
28532;DHT22;15738;44.860;10.066;2023-03-23T01:59:50;12.20;99.90
28532;DHT22;15738;44.860;10.066;2023-03-23T02:02:42;12.20;99.90
28532;DHT22;15738;44.860;10.066;2023-03-23T02:05:30;12.10;99.90
28532;DHT22;15738;44.860;10.066;2023-03-23T02:08:18;12.10;99.90
28532;DHT22;15738;44.860;10.066;2023-03-23T02:11:14;12.00;99.90
28532;DHT22;15738;44.860;10.066;2023-03-23T02:13:59;11.90;99.90
28532;DHT22;15738;44.860;10.066;2023-03-23T02:36:49;11.80;99.90
28532;DHT22;15738;44.860;10.066;2023-03-23T02:42:28;11.70;99.90
28532;DHT22;15738;44.860;10.066;2023-03-23T02:45:14;11.80;99.90
28532;DHT22;15738;44.860;10.066;2023-03-23T02:47:59;11.80;99.90
28532;DHT22;15738;44.860;10.066;2023-03-23T02:50:47;11.80;99.90
28532;DHT22;15738;44.860;10.066;2023-03-23T02:53:34;11.80;99.90
28532;DHT22;15738;44.860;10.066;2023-03-23T02:56:20;11.80;99.90
28532;DHT22;15738;44.860;10.066;2023-03-23T02:59:06;11.80;99.90
28532;DHT22;15738;44.860;10.066;2023-03-23T03:01:51;11.70;99.90
28532;DHT22;15738;44.860;10.066;2023-03-23T03:04:37;11.70;99.90
28532;DHT22;15738;44.860;10.066;2023-03-23T03:07:30;11.80;99.90
28532;DHT22;15738;44.860;10.066;2023-03-23T03:10:23;11.70;99.90
28532;DHT22;15738;44.860;10.066;2023-03-23T03:13:44;11.70;99.90
28532;DHT22;15738;44.860;10.066;2023-03-23T03:19:17;11.80;99.90
28532;DHT22;15738;44.860;10.066;2023-03-23T03:22:03;11.80;99.90
28532;DHT22;15738;44.860;10.066;2023-03-23T03:24:57;11.90;99.90
28532;DHT22;15738;44.860;10.066;2023-03-23T03:27:43;12.00;99.90
28532;DHT22;15738;44.860;10.066;2023-03-23T03:30:37;12.10;99.90
28532;DHT22;15738;44.860;10.066;2023-03-23T03:33:23;12.10;99.90
28532;DHT22;15738;44.860;10.066;2023-03-23T03:36:14;12.20;99.90
28532;DHT22;15738;44.860;10.066;2023-03-23T03:39:04;12.20;99.90
28532;DHT22;15738;44.860;10.066;2023-03-23T03:41:49;12.20;99.90
28532;DHT22;15738;44.860;10.066;2023-03-23T03:44:34;12.30;99.90
28532;DHT22;15738;44.860;10.066;2023-03-23T03:47:19;12.40;99.90
28532;DHT22;15738;44.860;10.066;2023-03-23T03:50:04;12.40;99.90
28532;DHT22;15738;44.860;10.066;2023-03-23T03:52:49;12.40;99.90
28532;DHT22;15738;44.860;10.066;2023-03-23T03:55:34;12.40;99.90
28532;DHT22;15738;44.860;10.066;2023-03-23T03:58:22;12.40;99.90
28532;DHT22;15738;44.860;10.066;2023-03-23T04:01:27;12.40;99.90
28532;DHT22;15738;44.860;10.066;2023-03-23T04:04:12;12.30;99.90
28532;DHT22;15738;44.860;10.066;2023-03-23T04:06:57;12.20;99.90
28532;DHT22;15738;44.860;10.066;2023-03-23T04:09:44;12.10;99.90
28532;DHT22;15738;44.860;10.066;2023-03-23T04:12:31;12.00;99.90
28532;DHT22;15738;44.860;10.066;2023-03-23T04:15:15;12.00;99.90
28532;DHT22;15738;44.860;10.066;2023-03-23T04:18:01;11.90;99.90
28532;DHT22;15738;44.860;10.066;2023-03-23T04:20:48;11.90;99.90
28532;DHT22;15738;44.860;10.066;2023-03-23T04:23:35;11.80;99.90
28532;DHT22;15738;44.860;10.066;2023-03-23T04:26:21;11.80;99.90
28532;DHT22;15738;44.860;10.066;2023-03-23T04:29:08;11.70;99.90
28532;DHT22;15738;44.860;10.066;2023-03-23T04:32:11;11.60;99.90
28532;DHT22;15738;44.860;10.066;2023-03-23T04:35:01;11.60;99.90
28532;DHT22;15738;44.860;10.066;2023-03-23T04:37:54;11.60;99.90
28532;DHT22;15738;44.860;10.066;2023-03-23T04:40:39;11.50;99.90
28532;DHT22;15738;44.860;10.066;2023-03-23T04:43:45;11.50;99.90
28532;DHT22;15738;44.860;10.066;2023-03-23T04:46:38;11.40;99.90
28532;DHT22;15738;44.860;10.066;2023-03-23T04:49:29;11.30;99.90
28532;DHT22;15738;44.860;10.066;2023-03-23T04:52:26;11.30;99.90
28532;DHT22;15738;44.860;10.066;2023-03-23T04:55:15;11.30;99.90
28532;DHT22;15738;44.860;10.066;2023-03-23T04:58:04;11.30;99.90
28532;DHT22;15738;44.860;10.066;2023-03-23T05:01:06;11.20;99.90
28532;DHT22;15738;44.860;10.066;2023-03-23T05:03:56;11.20;99.90
28532;DHT22;15738;44.860;10.066;2023-03-23T05:06:41;11.10;99.90
28532;DHT22;15738;44.860;10.066;2023-03-23T05:09:33;11.20;99.90
28532;DHT22;15738;44.860;10.066;2023-03-23T05:12:20;11.10;99.90
28532;DHT22;15738;44.860;10.066;2023-03-23T05:15:25;11.10;99.90
28532;DHT22;15738;44.860;10.066;2023-03-23T05:18:09;11.10;99.90
28532;DHT22;15738;44.860;10.066;2023-03-23T05:20:58;11.00;99.90
28532;DHT22;15738;44.860;10.066;2023-03-23T05:23:43;11.00;99.90
28532;DHT22;15738;44.860;10.066;2023-03-23T05:26:36;10.90;99.90
28532;DHT22;15738;44.860;10.066;2023-03-23T05:29:33;10.90;99.90
28532;DHT22;15738;44.860;10.066;2023-03-23T05:32:20;10.90;99.90
28532;DHT22;15738;44.860;10.066;2023-03-23T05:35:05;10.90;99.90
28532;DHT22;15738;44.860;10.066;2023-03-23T05:37:50;10.90;99.90
28532;DHT22;15738;44.860;10.066;2023-03-23T05:40:38;11.00;99.90
28532;DHT22;15738;44.860;10.066;2023-03-23T05:43:34;11.00;99.90
28532;DHT22;15738;44.860;10.066;2023-03-23T05:46:31;11.00;99.90
28532;DHT22;15738;44.860;10.066;2023-03-23T05:49:18;11.00;99.90
28532;DHT22;15738;44.860;10.066;2023-03-23T05:52:04;11.10;99.90
28532;DHT22;15738;44.860;10.066;2023-03-23T05:54:50;11.10;99.90
28532;DHT22;15738;44.860;10.066;2023-03-23T05:57:38;11.20;99.90
28532;DHT22;15738;44.860;10.066;2023-03-23T06:00:27;11.30;99.90
28532;DHT22;15738;44.860;10.066;2023-03-23T06:03:26;11.40;99.90
28532;DHT22;15738;44.860;10.066;2023-03-23T06:06:30;11.60;99.90
28532;DHT22;15738;44.860;10.066;2023-03-23T06:09:24;11.80;99.90
28532;DHT22;15738;44.860;10.066;2023-03-23T06:12:27;12.20;99.90
28532;DHT22;15738;44.860;10.066;2023-03-23T06:15:32;12.50;99.90
28532;DHT22;15738;44.860;10.066;2023-03-23T06:18:35;12.70;99.90
28532;DHT22;15738;44.860;10.066;2023-03-23T06:21:33;12.80;99.90
28532;DHT22;15738;44.860;10.066;2023-03-23T06:24:40;12.90;99.90
28532;DHT22;15738;44.860;10.066;2023-03-23T06:27:25;13.10;99.90
28532;DHT22;15738;44.860;10.066;2023-03-23T06:30:12;13.50;99.90
28532;DHT22;15738;44.860;10.066;2023-03-23T06:32:59;14.00;99.90
28532;DHT22;15738;44.860;10.066;2023-03-23T06:36:04;14.30;99.90
28532;DHT22;15738;44.860;10.066;2023-03-23T06:39:09;14.20;99.90
28532;DHT22;15738;44.860;10.066;2023-03-23T06:42:23;14.30;99.90
28532;DHT22;15738;44.860;10.066;2023-03-23T06:45:30;14.50;99.90
28532;DHT22;15738;44.860;10.066;2023-03-23T06:48:44;14.40;99.90
28532;DHT22;15738;44.860;10.066;2023-03-23T06:51:34;14.10;99.90
28532;DHT22;15738;44.860;10.066;2023-03-23T06:54:19;13.90;99.90
28532;DHT22;15738;44.860;10.066;2023-03-23T06:57:04;13.80;99.90
28532;DHT22;15738;44.860;10.066;2023-03-23T06:59:48;13.70;99.90
28532;DHT22;15738;44.860;10.066;2023-03-23T07:02:33;13.80;99.90
28532;DHT22;15738;44.860;10.066;2023-03-23T07:05:18;14.10;99.90
28532;DHT22;15738;44.860;10.066;2023-03-23T07:08:06;14.50;99.90
28532;DHT22;15738;44.860;10.066;2023-03-23T07:11:05;14.90;99.90
28532;DHT22;15738;44.860;10.066;2023-03-23T07:13:51;15.30;99.90
28532;DHT22;15738;44.860;10.066;2023-03-23T07:16:36;15.60;99.90
28532;DHT22;15738;44.860;10.066;2023-03-23T07:19:22;15.70;99.90
28532;DHT22;15738;44.860;10.066;2023-03-23T07:22:07;15.90;99.90
28532;DHT22;15738;44.860;10.066;2023-03-23T07:24:52;16.10;99.90
28532;DHT22;15738;44.860;10.066;2023-03-23T07:27:45;16.20;99.90
28532;DHT22;15738;44.860;10.066;2023-03-23T07:30:30;16.50;99.90
28532;DHT22;15738;44.860;10.066;2023-03-23T07:33:15;16.80;99.90
28532;DHT22;15738;44.860;10.066;2023-03-23T07:36:01;17.30;99.90
28532;DHT22;15738;44.860;10.066;2023-03-23T07:38:47;17.50;99.90
28532;DHT22;15738;44.860;10.066;2023-03-23T07:41:34;17.80;99.90
28532;DHT22;15738;44.860;10.066;2023-03-23T07:44:28;18.20;99.90
28532;DHT22;15738;44.860;10.066;2023-03-23T07:47:13;18.30;99.90
28532;DHT22;15738;44.860;10.066;2023-03-23T07:49:59;18.20;99.90
28532;DHT22;15738;44.860;10.066;2023-03-23T07:52:50;18.10;99.90
28532;DHT22;15738;44.860;10.066;2023-03-23T07:55:37;18.00;99.90
28532;DHT22;15738;44.860;10.066;2023-03-23T07:58:27;18.20;99.90
28532;DHT22;15738;44.860;10.066;2023-03-23T08:01:13;18.10;99.90
28532;DHT22;15738;44.860;10.066;2023-03-23T08:04:02;18.30;99.90
28532;DHT22;15738;44.860;10.066;2023-03-23T08:07:16;18.40;99.90
28532;DHT22;15738;44.860;10.066;2023-03-23T08:10:21;18.40;99.90
28532;DHT22;15738;44.860;10.066;2023-03-23T08:13:09;18.40;99.90
28532;DHT22;15738;44.860;10.066;2023-03-23T08:16:19;18.20;99.90
28532;DHT22;15738;44.860;10.066;2023-03-23T08:19:23;18.10;99.90
28532;DHT22;15738;44.860;10.066;2023-03-23T08:22:30;17.90;99.90
28532;DHT22;15738;44.860;10.066;2023-03-23T08:25:33;18.00;99.90
28532;DHT22;15738;44.860;10.066;2023-03-23T08:28:44;18.00;99.90
28532;DHT22;15738;44.860;10.066;2023-03-23T08:31:40;18.20;99.90
28532;DHT22;15738;44.860;10.066;2023-03-23T08:38:34;18.30;99.90
28532;DHT22;15738;44.860;10.066;2023-03-23T08:45:35;18.60;99.90
28532;DHT22;15738;44.860;10.066;2023-03-23T08:48:42;18.40;99.90
28532;DHT22;15738;44.860;10.066;2023-03-23T08:55:12;18.30;99.90
28532;DHT22;15738;44.860;10.066;2023-03-23T08:58:29;18.50;99.90
28532;DHT22;15738;44.860;10.066;2023-03-23T09:01:35;18.90;99.90
28532;DHT22;15738;44.860;10.066;2023-03-23T09:04:40;19.10;99.90
28532;DHT22;15738;44.860;10.066;2023-03-23T09:07:57;19.10;99.90
28532;DHT22;15738;44.860;10.066;2023-03-23T09:10:53;19.00;99.90
28532;DHT22;15738;44.860;10.066;2023-03-23T09:17:48;18.60;99.90
28532;DHT22;15738;44.860;10.066;2023-03-23T09:20:43;18.90;99.90
28532;DHT22;15738;44.860;10.066;2023-03-23T09:27:56;19.30;99.90
28532;DHT22;15738;44.860;10.066;2023-03-23T09:30:47;19.10;99.90
28532;DHT22;15738;44.860;10.066;2023-03-23T09:33:33;18.80;99.90
28532;DHT22;15738;44.860;10.066;2023-03-23T09:36:21;18.60;99.90
28532;DHT22;15738;44.860;10.066;2023-03-23T09:39:05;18.50;99.90
28532;DHT22;15738;44.860;10.066;2023-03-23T09:47:45;18.40;99.90
28532;DHT22;15738;44.860;10.066;2023-03-23T09:50:31;18.60;99.90
28532;DHT22;15738;44.860;10.066;2023-03-23T09:53:24;18.50;99.90
28532;DHT22;15738;44.860;10.066;2023-03-23T09:56:14;18.60;99.90
28532;DHT22;15738;44.860;10.066;2023-03-23T09:59:00;18.60;99.90
28532;DHT22;15738;44.860;10.066;2023-03-23T10:01:50;18.70;99.90
28532;DHT22;15738;44.860;10.066;2023-03-23T10:04:38;19.00;99.90
28532;DHT22;15738;44.860;10.066;2023-03-23T10:07:24;19.10;99.90
28532;DHT22;15738;44.860;10.066;2023-03-23T10:10:12;19.20;99.90
28532;DHT22;15738;44.860;10.066;2023-03-23T10:13:35;19.20;99.90
28532;DHT22;15738;44.860;10.066;2023-03-23T10:16:10;19.10;99.90
28532;DHT22;15738;44.860;10.066;2023-03-23T10:21:50;19.20;99.90
28532;DHT22;15738;44.860;10.066;2023-03-23T10:25:26;19.10;99.90
28532;DHT22;15738;44.860;10.066;2023-03-23T10:27:52;19.20;99.90
28532;DHT22;15738;44.860;10.066;2023-03-23T10:30:45;19.40;99.90
28532;DHT22;15738;44.860;10.066;2023-03-23T10:36:33;19.60;99.90
28532;DHT22;15738;44.860;10.066;2023-03-23T10:39:19;19.60;99.90
28532;DHT22;15738;44.860;10.066;2023-03-23T10:42:08;19.60;99.90
28532;DHT22;15738;44.860;10.066;2023-03-23T10:44:54;19.40;99.90
28532;DHT22;15738;44.860;10.066;2023-03-23T10:47:41;19.50;99.90
28532;DHT22;15738;44.860;10.066;2023-03-23T10:50:29;19.70;99.90
28532;DHT22;15738;44.860;10.066;2023-03-23T10:53:19;19.80;99.90
28532;DHT22;15738;44.860;10.066;2023-03-23T10:56:04;20.00;99.90
28532;DHT22;15738;44.860;10.066;2023-03-23T10:58:49;20.10;99.90
28532;DHT22;15738;44.860;10.066;2023-03-23T11:01:34;19.90;99.90
28532;DHT22;15738;44.860;10.066;2023-03-23T11:04:22;19.30;99.90
28532;DHT22;15738;44.860;10.066;2023-03-23T11:07:10;19.10;99.90
28532;DHT22;15738;44.860;10.066;2023-03-23T11:10:07;19.10;99.90
28532;DHT22;15738;44.860;10.066;2023-03-23T11:12:59;19.00;99.90
28532;DHT22;15738;44.860;10.066;2023-03-23T11:15:45;18.80;99.90
28532;DHT22;15738;44.860;10.066;2023-03-23T11:18:35;18.70;99.90
28532;DHT22;15738;44.860;10.066;2023-03-23T11:21:21;18.80;99.90
28532;DHT22;15738;44.860;10.066;2023-03-23T11:24:07;18.90;99.90
28532;DHT22;15738;44.860;10.066;2023-03-23T11:26:52;19.10;99.90
28532;DHT22;15738;44.860;10.066;2023-03-23T11:29:45;19.20;99.90
28532;DHT22;15738;44.860;10.066;2023-03-23T11:32:31;19.50;99.90
28532;DHT22;15738;44.860;10.066;2023-03-23T11:35:20;20.00;99.90
28532;DHT22;15738;44.860;10.066;2023-03-23T11:38:05;20.20;99.90
28532;DHT22;15738;44.860;10.066;2023-03-23T11:40:55;20.30;99.90
28532;DHT22;15738;44.860;10.066;2023-03-23T11:43:43;20.40;99.90
28532;DHT22;15738;44.860;10.066;2023-03-23T11:49:15;20.50;99.90
28532;DHT22;15738;44.860;10.066;2023-03-23T11:52:09;20.60;99.90
28532;DHT22;15738;44.860;10.066;2023-03-23T11:55:00;20.50;99.90
28532;DHT22;15738;44.860;10.066;2023-03-23T11:57:48;20.30;99.90
28532;DHT22;15738;44.860;10.066;2023-03-23T12:00:33;20.20;99.90
28532;DHT22;15738;44.860;10.066;2023-03-23T12:06:28;20.00;99.90
28532;DHT22;15738;44.860;10.066;2023-03-23T12:27:29;20.50;99.90
28532;DHT22;15738;44.860;10.066;2023-03-23T12:44:19;20.70;99.90
28532;DHT22;15738;44.860;10.066;2023-03-23T12:53:05;20.40;99.90
28532;DHT22;15738;44.860;10.066;2023-03-23T12:56:06;20.50;99.90
28532;DHT22;15738;44.860;10.066;2023-03-23T12:59:26;20.50;99.90
28532;DHT22;15738;44.860;10.066;2023-03-23T13:02:10;20.50;99.90
28532;DHT22;15738;44.860;10.066;2023-03-23T13:07:59;20.70;99.90
28532;DHT22;15738;44.860;10.066;2023-03-23T13:10:46;20.70;99.90
28532;DHT22;15738;44.860;10.066;2023-03-23T13:13:48;20.50;99.90
28532;DHT22;15738;44.860;10.066;2023-03-23T13:16:42;20.60;99.90
28532;DHT22;15738;44.860;10.066;2023-03-23T13:22:24;20.80;99.90
28532;DHT22;15738;44.860;10.066;2023-03-23T13:25:19;20.90;99.90
28532;DHT22;15738;44.860;10.066;2023-03-23T13:28:03;21.00;99.90
28532;DHT22;15738;44.860;10.066;2023-03-23T13:30:55;20.90;99.90
28532;DHT22;15738;44.860;10.066;2023-03-23T13:33:45;20.90;99.90
28532;DHT22;15738;44.860;10.066;2023-03-23T13:36:35;20.90;99.90
28532;DHT22;15738;44.860;10.066;2023-03-23T13:39:24;20.80;99.90
28532;DHT22;15738;44.860;10.066;2023-03-23T13:44:55;20.70;99.90
28532;DHT22;15738;44.860;10.066;2023-03-23T13:47:44;20.70;99.90
28532;DHT22;15738;44.860;10.066;2023-03-23T13:50:30;20.80;99.90
28532;DHT22;15738;44.860;10.066;2023-03-23T13:53:21;20.80;99.90
28532;DHT22;15738;44.860;10.066;2023-03-23T13:56:13;20.70;99.90
28532;DHT22;15738;44.860;10.066;2023-03-23T13:59:05;20.50;99.90
28532;DHT22;15738;44.860;10.066;2023-03-23T14:01:50;20.50;99.90
28532;DHT22;15738;44.860;10.066;2023-03-23T14:04:35;20.60;99.90
28532;DHT22;15738;44.860;10.066;2023-03-23T14:07:19;20.70;99.90
28532;DHT22;15738;44.860;10.066;2023-03-23T14:10:07;20.80;99.90
28532;DHT22;15738;44.860;10.066;2023-03-23T14:12:52;20.70;99.90
28532;DHT22;15738;44.860;10.066;2023-03-23T14:15:41;20.80;99.90
28532;DHT22;15738;44.860;10.066;2023-03-23T14:18:32;20.90;99.90
28532;DHT22;15738;44.860;10.066;2023-03-23T14:21:25;20.90;99.90
28532;DHT22;15738;44.860;10.066;2023-03-23T14:24:20;20.80;99.90
28532;DHT22;15738;44.860;10.066;2023-03-23T14:30:02;20.80;99.90
28532;DHT22;15738;44.860;10.066;2023-03-23T14:32:47;20.80;99.90
28532;DHT22;15738;44.860;10.066;2023-03-23T14:35:37;20.80;99.90
28532;DHT22;15738;44.860;10.066;2023-03-23T14:38:23;21.00;99.90
28532;DHT22;15738;44.860;10.066;2023-03-23T14:41:12;21.00;99.90
28532;DHT22;15738;44.860;10.066;2023-03-23T14:43:58;21.00;99.90
28532;DHT22;15738;44.860;10.066;2023-03-23T14:46:44;21.00;99.90
28532;DHT22;15738;44.860;10.066;2023-03-23T14:49:30;21.00;99.90
28532;DHT22;15738;44.860;10.066;2023-03-23T14:52:16;21.00;99.90
28532;DHT22;15738;44.860;10.066;2023-03-23T14:55:11;21.00;99.90
28532;DHT22;15738;44.860;10.066;2023-03-23T14:57:56;21.00;99.90
28532;DHT22;15738;44.860;10.066;2023-03-23T15:01:09;20.80;99.90
28532;DHT22;15738;44.860;10.066;2023-03-23T15:03:59;20.80;99.90
28532;DHT22;15738;44.860;10.066;2023-03-23T15:06:46;20.70;99.90
28532;DHT22;15738;44.860;10.066;2023-03-23T15:09:32;20.70;99.90
28532;DHT22;15738;44.860;10.066;2023-03-23T15:12:25;20.70;99.90
28532;DHT22;15738;44.860;10.066;2023-03-23T15:15:20;20.80;99.90
28532;DHT22;15738;44.860;10.066;2023-03-23T15:18:25;20.80;99.90
28532;DHT22;15738;44.860;10.066;2023-03-23T15:21:11;20.90;99.90
28532;DHT22;15738;44.860;10.066;2023-03-23T15:23:55;20.80;99.90
28532;DHT22;15738;44.860;10.066;2023-03-23T15:26:41;20.80;99.90
28532;DHT22;15738;44.860;10.066;2023-03-23T15:29:26;20.60;99.90
28532;DHT22;15738;44.860;10.066;2023-03-23T15:32:11;20.70;99.90
28532;DHT22;15738;44.860;10.066;2023-03-23T15:34:56;20.70;99.90
28532;DHT22;15738;44.860;10.066;2023-03-23T15:37:45;20.60;99.90
28532;DHT22;15738;44.860;10.066;2023-03-23T15:40:34;20.60;99.90
28532;DHT22;15738;44.860;10.066;2023-03-23T15:43:21;20.60;99.90
28532;DHT22;15738;44.860;10.066;2023-03-23T15:51:42;20.60;99.90
28532;DHT22;15738;44.860;10.066;2023-03-23T15:54:29;20.60;99.90
28532;DHT22;15738;44.860;10.066;2023-03-23T15:57:14;20.60;99.90
28532;DHT22;15738;44.860;10.066;2023-03-23T15:59:59;20.50;99.90
28532;DHT22;15738;44.860;10.066;2023-03-23T16:02:45;20.50;99.90
28532;DHT22;15738;44.860;10.066;2023-03-23T16:05:31;20.40;99.90
28532;DHT22;15738;44.860;10.066;2023-03-23T16:08:17;20.40;99.90
28532;DHT22;15738;44.860;10.066;2023-03-23T16:11:03;20.30;99.90
28532;DHT22;15738;44.860;10.066;2023-03-23T16:13:48;20.20;99.90
28532;DHT22;15738;44.860;10.066;2023-03-23T16:16:42;20.20;99.90
28532;DHT22;15738;44.860;10.066;2023-03-23T16:19:29;20.30;99.90
28532;DHT22;15738;44.860;10.066;2023-03-23T16:22:15;20.30;99.90
28532;DHT22;15738;44.860;10.066;2023-03-23T16:25:03;20.30;99.90
28532;DHT22;15738;44.860;10.066;2023-03-23T16:27:49;20.10;99.90
28532;DHT22;15738;44.860;10.066;2023-03-23T16:30:36;20.10;99.90
28532;DHT22;15738;44.860;10.066;2023-03-23T16:33:22;20.00;99.90
28532;DHT22;15738;44.860;10.066;2023-03-23T16:36:10;19.90;99.90
28532;DHT22;15738;44.860;10.066;2023-03-23T16:38:56;19.90;99.90
28532;DHT22;15738;44.860;10.066;2023-03-23T16:41:42;19.90;99.90
28532;DHT22;15738;44.860;10.066;2023-03-23T16:44:28;19.80;99.90
28532;DHT22;15738;44.860;10.066;2023-03-23T16:47:13;19.80;99.90
28532;DHT22;15738;44.860;10.066;2023-03-23T16:49:59;19.70;99.90
28532;DHT22;15738;44.860;10.066;2023-03-23T16:52:45;19.60;99.90
28532;DHT22;15738;44.860;10.066;2023-03-23T16:55:31;19.60;99.90
28532;DHT22;15738;44.860;10.066;2023-03-23T16:58:17;19.50;99.90
28532;DHT22;15738;44.860;10.066;2023-03-23T17:01:03;19.50;99.90
28532;DHT22;15738;44.860;10.066;2023-03-23T17:03:50;19.50;99.90
28532;DHT22;15738;44.860;10.066;2023-03-23T17:06:36;19.60;99.90
28532;DHT22;15738;44.860;10.066;2023-03-23T17:09:22;19.50;99.90
28532;DHT22;15738;44.860;10.066;2023-03-23T17:12:07;19.50;99.90
28532;DHT22;15738;44.860;10.066;2023-03-23T17:14:53;19.40;99.90
28532;DHT22;15738;44.860;10.066;2023-03-23T17:17:39;19.30;99.90
28532;DHT22;15738;44.860;10.066;2023-03-23T17:20:24;19.30;99.90
28532;DHT22;15738;44.860;10.066;2023-03-23T17:23:10;19.20;99.90
28532;DHT22;15738;44.860;10.066;2023-03-23T17:25:56;19.10;99.90
28532;DHT22;15738;44.860;10.066;2023-03-23T17:28:42;19.10;99.90
28532;DHT22;15738;44.860;10.066;2023-03-23T17:31:28;19.00;99.90
28532;DHT22;15738;44.860;10.066;2023-03-23T17:34:14;18.90;99.90
28532;DHT22;15738;44.860;10.066;2023-03-23T17:37:02;18.80;99.90
28532;DHT22;15738;44.860;10.066;2023-03-23T17:39:48;18.80;99.90
28532;DHT22;15738;44.860;10.066;2023-03-23T17:42:33;18.70;99.90
28532;DHT22;15738;44.860;10.066;2023-03-23T17:45:19;18.60;99.90
28532;DHT22;15738;44.860;10.066;2023-03-23T17:48:05;18.60;99.90
28532;DHT22;15738;44.860;10.066;2023-03-23T17:50:53;18.50;99.90
28532;DHT22;15738;44.860;10.066;2023-03-23T17:53:39;18.40;99.90
28532;DHT22;15738;44.860;10.066;2023-03-23T17:56:25;18.30;99.90
28532;DHT22;15738;44.860;10.066;2023-03-23T17:59:11;18.30;99.90
28532;DHT22;15738;44.860;10.066;2023-03-23T18:01:57;18.20;99.90
28532;DHT22;15738;44.860;10.066;2023-03-23T18:04:44;18.10;99.90
28532;DHT22;15738;44.860;10.066;2023-03-23T18:07:30;18.00;99.90
28532;DHT22;15738;44.860;10.066;2023-03-23T18:10:16;17.90;99.90
28532;DHT22;15738;44.860;10.066;2023-03-23T18:13:02;17.80;99.90
28532;DHT22;15738;44.860;10.066;2023-03-23T18:15:49;17.70;99.90
28532;DHT22;15738;44.860;10.066;2023-03-23T18:18:35;17.60;99.90
28532;DHT22;15738;44.860;10.066;2023-03-23T18:21:21;17.40;99.90
28532;DHT22;15738;44.860;10.066;2023-03-23T18:24:07;17.40;99.90
28532;DHT22;15738;44.860;10.066;2023-03-23T18:26:53;17.30;99.90
28532;DHT22;15738;44.860;10.066;2023-03-23T18:29:39;17.30;99.90
28532;DHT22;15738;44.860;10.066;2023-03-23T18:32:24;17.10;99.90
28532;DHT22;15738;44.860;10.066;2023-03-23T18:35:11;17.00;99.90
28532;DHT22;15738;44.860;10.066;2023-03-23T18:37:57;17.00;99.90
28532;DHT22;15738;44.860;10.066;2023-03-23T18:40:43;16.90;99.90
28532;DHT22;15738;44.860;10.066;2023-03-23T18:43:31;16.90;99.90
28532;DHT22;15738;44.860;10.066;2023-03-23T18:46:16;16.90;99.90
28532;DHT22;15738;44.860;10.066;2023-03-23T18:49:02;16.80;99.90
28532;DHT22;15738;44.860;10.066;2023-03-23T18:51:48;16.70;99.90
28532;DHT22;15738;44.860;10.066;2023-03-23T18:54:34;16.70;99.90
28532;DHT22;15738;44.860;10.066;2023-03-23T18:57:22;16.70;99.90
28532;DHT22;15738;44.860;10.066;2023-03-23T19:00:08;16.70;99.90
28532;DHT22;15738;44.860;10.066;2023-03-23T19:02:54;16.60;99.90
28532;DHT22;15738;44.860;10.066;2023-03-23T19:05:40;16.60;99.90
28532;DHT22;15738;44.860;10.066;2023-03-23T19:08:27;16.60;99.90
28532;DHT22;15738;44.860;10.066;2023-03-23T19:11:13;16.50;99.90
28532;DHT22;15738;44.860;10.066;2023-03-23T19:13:59;16.50;99.90
28532;DHT22;15738;44.860;10.066;2023-03-23T19:16:47;16.50;99.90
28532;DHT22;15738;44.860;10.066;2023-03-23T19:19:34;16.50;99.90
28532;DHT22;15738;44.860;10.066;2023-03-23T19:22:19;16.40;99.90
28532;DHT22;15738;44.860;10.066;2023-03-23T19:25:06;16.40;99.90
28532;DHT22;15738;44.860;10.066;2023-03-23T19:27:52;16.40;99.90
28532;DHT22;15738;44.860;10.066;2023-03-23T19:30:48;16.30;99.90
28532;DHT22;15738;44.860;10.066;2023-03-23T19:33:36;16.30;99.90